Greensboro, NC

12:57 AM EDT on May 26, 2015 (GMT -0400)
Westerwood | | Change Station
CLOSE
Current Station
Personal Weather Station
Location: Greensboro, NC
Elevation: 779 ft
Nearby Weather Stations

Elev 779 ft 36.08 °N, 79.81 °W | Updated 18 seconds ago

Partly Cloudy
Partly Cloudy
69.5 °F
Feels Like 69.5 °F
N
1.0
Wind Variable Wind from SSW

Today
High -- | Low -- °F
--% Chance of Precip.
Yesterday
High -- | Low -- °F
Precip. -- in
6:06 AM 8:26 PM
First Quarter, 55% visible
Pressure 30.23 in
Visibility 10.0 miles
Clouds Few 10000 ft
Dew Point 64 °F
Humidity 82%
Rainfall 0.00 in
Snow Depth Not available.
UV 0 out of 12
Pollen 8.50 out of 12
Air Quality Not available.
Flu Activity No Activity
METAR KGSO 260354Z 19007KT 10SM FEW100 21/15 A3026 RMK AO2 SLP236 T02110150

More Conditions Fewer Conditions

Pressure 30.23 in
Visibility 10.0 miles
Clouds Few 10000 ft
Dew Point 64 °F
Humidity 82%
Rainfall 0.00 in
Snow Depth Not available.
UV 0 out of 12
Pollen 8.50 out of 12
Air Quality Not available.
Flu Activity No Activity
METAR KGSO 260354Z 19007KT 10SM FEW100 21/15 A3026 RMK AO2 SLP236 T02110150

More Conditions Fewer Conditions

10-Day Weather Forecast

Almanac

Astronomy

May. 26, 2015 Rise Set
Actual Time
Civil Twilight
Nautical Twilight
Astronomical Twilight
Moon
Length of Visible Light
Length of Day
Tomorrow will be .
, % of the Moon is Illuminated

Today's Extremes

State Highs State Lows

Community

WunderPhotos

Upload Photos

1,824,280 photos uploaded!

WunderBlogs® & News

Nearby

Air Quality

  Air Quality AQ Index Pollutant
Not available.

Snow Depth

Station Depth Elevation

Earthquake Activity

City Distance Mag. Time & Date
Minimum magnitude displayed is 2.5.

Coastal Water Temperatures

Place Temperature

Stations

Nearby Weather Stations

Station Location Temp. Windchill Dew Point Humidity Wind Precip. Elev Updated Type